createdAt,value
2019-03-30T00:02:27.426Z,2.20
2019-03-30T00:05:00.507Z,2.20
2019-03-30T00:07:32.842Z,2.18
2019-03-30T00:10:05.676Z,2.15
2019-03-30T00:12:37.959Z,2.16
2019-03-30T00:15:13.570Z,2.16
2019-03-30T00:17:45.971Z,2.13
2019-03-30T00:20:19.439Z,2.16
2019-03-30T00:22:51.615Z,2.12
2019-03-30T00:25:23.870Z,2.12
2019-03-30T00:27:56.163Z,2.18
2019-03-30T00:30:28.449Z,2.17
2019-03-30T00:33:00.695Z,2.12
2019-03-30T00:35:32.934Z,2.17
2019-03-30T00:38:05.179Z,2.09
2019-03-30T00:40:37.437Z,2.08
2019-03-30T00:43:09.759Z,2.10
2019-03-30T00:45:42.011Z,2.14
2019-03-30T00:48:14.679Z,2.05
2019-03-30T00:50:47.409Z,2.03
2019-03-30T00:53:19.678Z,1.88
2019-03-30T00:55:52.136Z,1.79
2019-03-30T00:58:25.760Z,1.83
2019-03-30T01:00:58.568Z,1.93
2019-03-30T01:03:31.332Z,2.01
2019-03-30T01:06:04.800Z,2.02
2019-03-30T01:08:37.094Z,2.04
2019-03-30T01:11:09.367Z,2.03
2019-03-30T01:13:41.689Z,2.01
2019-03-30T01:16:16.585Z,1.99
2019-03-30T01:18:48.870Z,1.96
2019-03-30T01:21:23.171Z,1.95
2019-03-30T01:23:55.380Z,1.96
2019-03-30T01:26:28.219Z,1.96
2019-03-30T01:29:01.448Z,1.94
2019-03-30T01:31:34.165Z,1.96
2019-03-30T01:34:07.791Z,1.97
2019-03-30T01:36:39.985Z,1.97
2019-03-30T01:39:14.617Z,1.95
2019-03-30T01:41:46.867Z,1.94
2019-03-30T01:44:19.135Z,2.01
2019-03-30T01:46:53.178Z,1.99
2019-03-30T01:49:25.569Z,2.02
2019-03-30T01:51:57.750Z,2.06
2019-03-30T01:54:30.155Z,2.00
2019-03-30T01:57:03.097Z,1.99
2019-03-30T01:59:36.465Z,1.91
2019-03-30T02:02:08.648Z,1.96
2019-03-30T02:04:41.025Z,1.93
2019-03-30T02:07:13.237Z,1.87
2019-03-30T02:09:45.451Z,1.87
2019-03-30T02:12:18.042Z,1.90
2019-03-30T02:14:50.323Z,1.87
2019-03-30T02:17:23.267Z,1.77
2019-03-30T02:19:55.501Z,1.79
2019-03-30T02:22:27.741Z,1.83
2019-03-30T02:24:59.935Z,1.78
2019-03-30T02:27:33.205Z,1.80
2019-03-30T02:30:08.168Z,1.81
2019-03-30T02:32:40.685Z,1.71
2019-03-30T02:35:12.999Z,1.74
2019-03-30T02:37:45.217Z,1.64
2019-03-30T02:40:20.447Z,1.52
2019-03-30T02:42:52.812Z,1.41
2019-03-30T02:45:25.235Z,1.42
2019-03-30T02:47:57.561Z,1.40
2019-03-30T02:50:29.783Z,1.21
2019-03-30T02:53:01.974Z,1.22
2019-03-30T02:55:34.189Z,1.23
2019-03-30T02:58:06.417Z,1.21
2019-03-30T03:00:39.999Z,1.17
2019-03-30T03:03:12.516Z,1.23
2019-03-30T03:05:44.726Z,1.20
2019-03-30T03:08:17.411Z,1.25
2019-03-30T03:10:49.722Z,1.36
2019-03-30T03:13:22.520Z,1.39
2019-03-30T03:15:54.774Z,1.47
2019-03-30T03:18:29.447Z,1.42
2019-03-30T03:21:07.786Z,1.41
2019-03-30T03:23:36.224Z,1.45
2019-03-30T03:26:08.373Z,1.54
2019-03-30T03:28:40.464Z,1.42
2019-03-30T03:31:14.279Z,1.48
2019-03-30T03:33:47.132Z,1.52
2019-03-30T03:36:20.921Z,1.60
2019-03-30T03:38:53.150Z,1.58
2019-03-30T03:41:25.332Z,1.60
2019-03-30T03:43:57.697Z,1.47
2019-03-30T03:46:30.078Z,1.38
2019-03-30T03:49:02.298Z,1.34
2019-03-30T03:51:35.456Z,1.17
2019-03-30T03:54:08.012Z,1.14
2019-03-30T03:56:40.991Z,1.08
2019-03-30T03:59:13.880Z,1.00
2019-03-30T04:01:48.018Z,1.01
2019-03-30T04:04:22.009Z,1.03
2019-03-30T04:06:55.378Z,1.14
2019-03-30T04:09:29.558Z,1.14
2019-03-30T04:12:04.045Z,1.12
2019-03-30T04:14:39.198Z,1.12
2019-03-30T04:17:11.667Z,1.13
2019-03-30T04:19:43.987Z,1.13
2019-03-30T04:22:16.298Z,1.20
2019-03-30T04:24:49.343Z,1.32
2019-03-30T04:27:21.621Z,1.34
2019-03-30T04:29:54.063Z,1.47
2019-03-30T04:32:28.772Z,1.53
2019-03-30T04:35:34.020Z,1.63
2019-03-30T04:38:06.632Z,1.69
2019-03-30T04:40:38.849Z,1.82
2019-03-30T04:43:11.153Z,1.96
2019-03-30T04:45:43.349Z,1.95
2019-03-30T04:48:15.697Z,2.06
2019-03-30T04:50:47.944Z,2.12
2019-03-30T04:53:20.094Z,2.21
2019-03-30T04:55:52.297Z,2.28
2019-03-30T04:58:24.549Z,2.39
2019-03-30T05:00:58.444Z,2.48
2019-03-30T05:03:30.478Z,2.54
2019-03-30T05:06:02.797Z,2.61
2019-03-30T05:08:36.857Z,2.66
2019-03-30T05:11:11.793Z,2.77
2019-03-30T05:13:45.512Z,2.85
2019-03-30T05:16:17.796Z,2.99
2019-03-30T05:18:50.883Z,3.04
2019-03-30T05:21:23.125Z,3.09
2019-03-30T05:23:55.305Z,3.24
2019-03-30T05:26:27.611Z,3.37
2019-03-30T05:28:59.858Z,3.49
2019-03-30T05:31:32.707Z,3.66
2019-03-30T05:34:05.100Z,3.82
2019-03-30T05:36:37.440Z,3.97
2019-03-30T05:39:09.751Z,4.06
2019-03-30T05:41:41.986Z,4.18
2019-03-30T05:44:14.229Z,4.33
2019-03-30T05:46:46.673Z,4.48
2019-03-30T05:49:18.941Z,4.64
2019-03-30T05:51:51.196Z,4.75
2019-03-30T05:54:23.488Z,4.90
2019-03-30T05:56:57.265Z,5.08
2019-03-30T05:59:29.674Z,5.33
2019-03-30T06:02:01.952Z,5.56
2019-03-30T06:04:34.302Z,5.77
2019-03-30T06:07:06.545Z,5.90
2019-03-30T06:09:38.869Z,6.21
2019-03-30T06:12:11.921Z,6.38
2019-03-30T06:14:44.260Z,6.45
2019-03-30T06:17:16.621Z,6.44
2019-03-30T06:19:48.873Z,6.41
2019-03-30T06:22:21.214Z,6.23
2019-03-30T06:24:55.445Z,6.22
2019-03-30T06:27:27.804Z,6.26
2019-03-30T06:30:18.394Z,6.20
2019-03-30T06:32:50.711Z,6.18
2019-03-30T06:35:23.591Z,6.34
2019-03-30T06:37:56.137Z,6.50
2019-03-30T06:40:30.652Z,6.62
2019-03-30T06:43:02.602Z,6.87
2019-03-30T06:45:34.993Z,6.96
2019-03-30T06:48:07.965Z,7.13
2019-03-30T06:50:40.122Z,7.16
2019-03-30T06:53:12.593Z,7.21
2019-03-30T06:55:44.835Z,7.38
2019-03-30T06:58:17.041Z,7.19
2019-03-30T07:00:49.141Z,7.16
2019-03-30T07:03:21.630Z,7.29
2019-03-30T07:05:56.159Z,7.67
2019-03-30T07:08:33.897Z,7.95
2019-03-30T07:11:20.437Z,8.22
2019-03-30T07:13:42.872Z,8.33
2019-03-30T07:16:15.235Z,8.59
2019-03-30T07:18:47.739Z,8.80
2019-03-30T07:21:20.119Z,9.11
2019-03-30T07:23:54.494Z,9.44
2019-03-30T07:26:28.522Z,9.72
2019-03-30T07:29:01.656Z,9.79
2019-03-30T07:31:34.153Z,9.98
2019-03-30T07:34:06.740Z,9.97
2019-03-30T07:36:39.209Z,9.87
2019-03-30T07:39:11.789Z,9.74
2019-03-30T07:41:44.061Z,9.70
2019-03-30T07:44:16.416Z,9.77
2019-03-30T07:46:48.941Z,9.65
2019-03-30T07:49:21.236Z,9.53
2019-03-30T07:51:53.504Z,9.46
2019-03-30T07:54:30.488Z,9.47
2019-03-30T07:57:17.408Z,9.43
2019-03-30T07:59:52.500Z,9.57
2019-03-30T08:02:24.991Z,10.14
2019-03-30T08:04:59.628Z,10.67
2019-03-30T08:07:31.899Z,11.16
2019-03-30T08:10:04.243Z,11.45
2019-03-30T08:12:36.462Z,11.64
2019-03-30T08:15:11.531Z,11.64
2019-03-30T08:17:43.699Z,11.76
2019-03-30T08:20:16.394Z,11.91
2019-03-30T08:22:52.051Z,11.88
2019-03-30T08:25:24.431Z,11.87
2019-03-30T08:27:56.727Z,12.06
2019-03-30T08:30:29.082Z,12.37
2019-03-30T08:33:01.367Z,12.37
2019-03-30T08:35:36.910Z,12.33
2019-03-30T08:38:29.497Z,12.16
2019-03-30T08:41:21.424Z,12.43
2019-03-30T08:44:07.141Z,12.58
2019-03-30T08:46:42.269Z,12.65
2019-03-30T08:49:20.351Z,12.89
2019-03-30T08:51:52.552Z,12.97
2019-03-30T08:54:24.861Z,13.14
2019-03-30T08:56:57.303Z,13.17
2019-03-30T08:59:30.313Z,13.41
2019-03-30T09:02:02.635Z,13.38
2019-03-30T09:04:37.720Z,13.47
2019-03-30T09:07:10.398Z,13.39
2019-03-30T09:09:42.738Z,13.55
2019-03-30T09:12:17.807Z,13.66
2019-03-30T09:14:51.024Z,13.79
2019-03-30T09:17:24.929Z,13.67
2019-03-30T09:19:57.106Z,13.69
2019-03-30T09:22:32.249Z,13.67
2019-03-30T09:25:08.209Z,14.01
2019-03-30T09:27:41.850Z,14.27
2019-03-30T09:30:14.771Z,14.63
2019-03-30T09:32:50.784Z,14.40
2019-03-30T09:35:26.428Z,14.42
2019-03-30T09:38:00.892Z,14.66
2019-03-30T09:40:33.249Z,15.17
2019-03-30T09:43:05.595Z,14.70
2019-03-30T09:45:38.304Z,14.91
2019-03-30T09:48:10.644Z,14.87
2019-03-30T09:50:42.946Z,15.07
2019-03-30T09:53:15.196Z,15.14
2019-03-30T09:55:47.589Z,14.78
2019-03-30T09:58:19.852Z,14.60
2019-03-30T10:00:52.307Z,14.38
2019-03-30T10:03:24.597Z,14.67
2019-03-30T10:05:57.331Z,14.97
2019-03-30T10:08:29.610Z,15.04
2019-03-30T10:11:12.986Z,15.37
2019-03-30T10:13:45.354Z,15.33
2019-03-30T10:16:20.926Z,15.01
2019-03-30T10:18:54.036Z,14.78
2019-03-30T10:21:28.435Z,14.87
2019-03-30T10:24:00.811Z,14.95
2019-03-30T10:26:35.934Z,14.60
2019-03-30T10:29:08.452Z,14.63
2019-03-30T10:31:42.741Z,14.43
2019-03-30T10:34:15.929Z,14.59
2019-03-30T10:36:48.223Z,14.51
2019-03-30T10:39:20.434Z,14.42
2019-03-30T10:41:52.792Z,14.35
2019-03-30T10:44:25.796Z,14.47
2019-03-30T10:46:59.080Z,14.94
2019-03-30T10:49:31.309Z,14.92
2019-03-30T10:52:03.644Z,14.80
2019-03-30T10:54:35.927Z,15.20
2019-03-30T10:57:08.224Z,15.08
2019-03-30T10:59:40.533Z,15.18
2019-03-30T11:02:12.699Z,15.28
2019-03-30T11:04:45.960Z,14.27
2019-03-30T11:07:19.809Z,14.34
2019-03-30T11:09:52.847Z,14.51
2019-03-30T11:12:26.556Z,14.55
2019-03-30T11:14:58.935Z,14.62
2019-03-30T11:17:31.304Z,14.73
2019-03-30T11:20:03.676Z,14.76
2019-03-30T11:22:35.921Z,14.67
2019-03-30T11:25:09.567Z,14.91
2019-03-30T11:27:41.806Z,14.90
2019-03-30T11:30:15.316Z,14.36
2019-03-30T11:32:47.524Z,14.60
2019-03-30T11:35:19.952Z,14.76
2019-03-30T11:37:52.290Z,14.63
2019-03-30T11:40:24.697Z,14.42
2019-03-30T11:42:57.105Z,14.71
2019-03-30T11:45:29.616Z,14.32
2019-03-30T11:48:01.907Z,14.38
2019-03-30T11:50:34.431Z,14.10
2019-03-30T11:53:07.014Z,14.08
2019-03-30T11:55:39.446Z,13.68
2019-03-30T11:58:11.866Z,13.45
2019-03-30T12:00:44.141Z,13.22
2019-03-30T12:03:17.100Z,13.19
2019-03-30T12:05:49.499Z,13.10
2019-03-30T12:08:21.744Z,13.16
2019-03-30T12:10:53.987Z,13.18
2019-03-30T12:13:27.127Z,12.92
2019-03-30T12:15:59.418Z,12.85
2019-03-30T12:18:32.846Z,12.75
2019-03-30T12:21:05.221Z,12.85
2019-03-30T12:23:38.935Z,12.50
2019-03-30T12:26:11.285Z,12.38
2019-03-30T12:28:43.538Z,12.16
2019-03-30T12:31:15.690Z,11.97
2019-03-30T12:33:48.102Z,11.46
2019-03-30T12:36:20.489Z,11.67
2019-03-30T12:38:52.921Z,11.68
2019-03-30T12:41:25.207Z,11.68
2019-03-30T12:44:00.760Z,11.69
2019-03-30T12:46:33.015Z,11.53
2019-03-30T12:49:06.690Z,11.44
2019-03-30T12:51:40.423Z,11.44
2019-03-30T12:54:14.352Z,11.19
2019-03-30T12:56:47.490Z,10.98
2019-03-30T12:59:21.957Z,10.82
2019-03-30T13:01:54.322Z,10.82
2019-03-30T13:04:27.237Z,10.84
2019-03-30T13:06:59.553Z,10.84
2019-03-30T13:09:34.706Z,10.65
2019-03-30T13:12:07.202Z,10.65
2019-03-30T13:14:40.597Z,10.48
2019-03-30T13:17:12.993Z,10.33
2019-03-30T13:19:45.386Z,10.19
2019-03-30T13:22:17.631Z,9.89
2019-03-30T13:24:49.903Z,10.16
2019-03-30T13:27:22.126Z,10.16
2019-03-30T13:29:54.476Z,10.07
2019-03-30T13:32:27.795Z,9.96
2019-03-30T13:35:01.484Z,10.02
2019-03-30T13:37:33.923Z,10.01
2019-03-30T13:40:07.292Z,9.97
2019-03-30T13:42:40.468Z,9.87
2019-03-30T13:45:13.322Z,9.98
2019-03-30T13:47:45.456Z,9.89
2019-03-30T13:50:19.099Z,9.80
2019-03-30T13:52:56.263Z,9.77
2019-03-30T13:55:28.565Z,9.53
2019-03-30T13:58:02.176Z,9.49
2019-03-30T14:00:34.510Z,9.44
2019-03-30T14:03:06.920Z,9.40
2019-03-30T14:05:39.373Z,9.44
2019-03-30T14:08:14.528Z,9.42
2019-03-30T14:10:47.909Z,9.40
2019-03-30T14:13:20.230Z,9.49
2019-03-30T14:15:59.828Z,9.53
2019-03-30T14:18:36.317Z,9.50
2019-03-30T14:21:09.480Z,9.50
2019-03-30T14:23:43.577Z,9.33
2019-03-30T14:26:30.397Z,9.13
2019-03-30T14:28:51.635Z,9.17
2019-03-30T14:31:23.977Z,9.06
2019-03-30T14:33:58.008Z,9.04
2019-03-30T14:36:30.853Z,9.10
2019-03-30T14:39:07.607Z,9.05
2019-03-30T14:41:40.948Z,9.02
2019-03-30T14:44:14.040Z,8.98
2019-03-30T14:46:47.351Z,8.97
2019-03-30T14:49:20.972Z,8.95
2019-03-30T14:51:54.125Z,8.82
2019-03-30T14:54:26.774Z,8.76
2019-03-30T14:56:59.104Z,8.53
2019-03-30T14:59:31.396Z,8.53
2019-03-30T15:02:03.903Z,8.60
2019-03-30T15:04:36.340Z,8.53
2019-03-30T15:07:08.653Z,8.52
2019-03-30T15:09:40.936Z,8.51
2019-03-30T15:12:13.172Z,8.44
2019-03-30T15:14:46.229Z,8.37
2019-03-30T15:17:18.596Z,8.26
2019-03-30T15:19:50.883Z,8.28
2019-03-30T15:22:23.414Z,8.25
2019-03-30T15:24:55.717Z,8.25
2019-03-30T15:27:27.997Z,8.29
2019-03-30T15:30:00.498Z,8.31
2019-03-30T15:32:32.804Z,8.29
2019-03-30T15:35:05.308Z,8.19
2019-03-30T15:37:38.610Z,8.29
2019-03-30T15:40:12.323Z,8.16
2019-03-30T15:42:44.544Z,8.19
2019-03-30T15:45:17.131Z,8.22
2019-03-30T15:47:49.326Z,8.19
2019-03-30T15:50:21.768Z,8.30
2019-03-30T15:52:54.007Z,8.43
2019-03-30T15:55:26.378Z,8.47
2019-03-30T15:58:02.016Z,8.41
2019-03-30T16:00:34.614Z,8.39
2019-03-30T16:03:07.133Z,8.31
2019-03-30T16:05:39.356Z,8.28
2019-03-30T16:08:11.567Z,8.19
2019-03-30T16:10:43.979Z,8.15
2019-03-30T16:13:16.332Z,8.11
2019-03-30T16:15:48.858Z,8.02
2019-03-30T16:18:21.194Z,7.75
2019-03-30T16:20:53.660Z,7.68
2019-03-30T16:23:25.886Z,7.65
2019-03-30T16:25:58.144Z,7.64
2019-03-30T16:28:30.346Z,7.55
2019-03-30T16:31:03.344Z,7.57
2019-03-30T16:33:35.907Z,7.47
2019-03-30T16:36:08.370Z,7.54
2019-03-30T16:38:40.763Z,7.45
2019-03-30T16:41:13.179Z,7.43
2019-03-30T16:43:47.120Z,7.42
2019-03-30T16:46:19.387Z,7.32
2019-03-30T16:48:51.450Z,7.23
2019-03-30T16:51:23.725Z,7.10
2019-03-30T16:53:56.442Z,7.14
2019-03-30T16:56:28.782Z,7.09
2019-03-30T16:59:01.093Z,7.07
2019-03-30T17:01:33.403Z,7.07
2019-03-30T17:04:06.833Z,7.01
2019-03-30T17:06:40.478Z,6.96
2019-03-30T17:09:12.815Z,7.00
2019-03-30T17:11:45.180Z,6.93
2019-03-30T17:14:17.496Z,7.05
2019-03-30T17:16:49.894Z,7.04
2019-03-30T17:19:22.122Z,7.01
2019-03-30T17:21:54.391Z,7.03
2019-03-30T17:24:26.816Z,7.07
2019-03-30T17:26:59.110Z,7.17
2019-03-30T17:29:31.521Z,7.20
2019-03-30T17:32:03.871Z,7.31
2019-03-30T17:34:36.905Z,7.34
2019-03-30T17:37:09.192Z,7.36
2019-03-30T17:39:41.674Z,7.31
2019-03-30T17:42:13.838Z,7.30
2019-03-30T17:44:46.158Z,7.29
2019-03-30T17:47:19.034Z,7.30
2019-03-30T17:49:51.356Z,7.22
2019-03-30T17:52:23.736Z,7.19
2019-03-30T17:54:56.168Z,7.20
2019-03-30T17:57:28.579Z,7.18
2019-03-30T18:00:00.966Z,7.07
2019-03-30T18:02:33.375Z,6.96
2019-03-30T18:05:05.734Z,7.00
2019-03-30T18:07:39.212Z,7.01
2019-03-30T18:10:13.374Z,7.00
2019-03-30T18:12:46.980Z,7.05
2019-03-30T18:15:19.439Z,7.15
2019-03-30T18:17:51.938Z,7.16
2019-03-30T18:20:25.510Z,7.17
2019-03-30T18:22:58.620Z,7.22
2019-03-30T18:25:33.623Z,7.15
2019-03-30T18:28:05.979Z,7.15
2019-03-30T18:30:40.392Z,7.12
2019-03-30T18:33:14.495Z,7.09
2019-03-30T18:35:47.102Z,7.12
2019-03-30T18:38:20.130Z,7.10
2019-03-30T18:40:52.920Z,7.09
2019-03-30T18:43:26.944Z,7.05
2019-03-30T18:45:59.391Z,7.03
2019-03-30T18:48:31.762Z,7.04
2019-03-30T18:51:04.169Z,6.98
2019-03-30T18:53:38.353Z,6.97
2019-03-30T18:56:10.567Z,6.91
2019-03-30T18:58:43.714Z,6.88
2019-03-30T19:01:16.476Z,6.83
2019-03-30T19:03:50.237Z,6.80
2019-03-30T19:06:24.004Z,6.77
2019-03-30T19:08:56.509Z,6.73
2019-03-30T19:11:28.933Z,6.75
2019-03-30T19:14:01.230Z,6.71
2019-03-30T19:16:33.646Z,6.68
2019-03-30T19:19:06.647Z,6.66
2019-03-30T19:21:39.115Z,6.60
2019-03-30T19:24:11.395Z,6.57
2019-03-30T19:26:44.866Z,6.48
2019-03-30T19:29:17.193Z,6.54
2019-03-30T19:31:50.062Z,6.43
2019-03-30T19:34:22.396Z,6.50
2019-03-30T19:36:56.206Z,6.33
2019-03-30T19:39:28.543Z,6.36
2019-03-30T19:42:00.781Z,6.32
2019-03-30T19:44:33.164Z,6.22
2019-03-30T19:47:05.208Z,6.20
2019-03-30T19:49:37.877Z,6.19
2019-03-30T19:52:10.400Z,6.11
2019-03-30T19:54:42.865Z,6.03
2019-03-30T19:57:15.061Z,6.02
2019-03-30T19:59:48.611Z,6.02
2019-03-30T20:02:20.919Z,5.98
2019-03-30T20:04:53.614Z,5.92
2019-03-30T20:07:25.836Z,5.86
2019-03-30T20:09:58.210Z,5.85
2019-03-30T20:12:32.853Z,5.82
2019-03-30T20:15:05.267Z,5.79
2019-03-30T20:17:39.159Z,5.80
2019-03-30T20:20:11.637Z,5.80
2019-03-30T20:22:43.995Z,5.71
2019-03-30T20:25:16.298Z,5.65
2019-03-30T20:27:48.987Z,5.69
2019-03-30T20:30:24.249Z,5.64
2019-03-30T20:33:05.420Z,5.55
2019-03-30T20:35:37.820Z,5.50
2019-03-30T20:38:10.305Z,5.43
2019-03-30T20:40:42.633Z,5.39
2019-03-30T20:43:16.452Z,5.39
2019-03-30T20:45:48.468Z,5.38
2019-03-30T20:48:21.856Z,5.46
2019-03-30T20:50:54.104Z,5.46
2019-03-30T20:53:26.684Z,5.38
2019-03-30T20:55:58.896Z,5.33
2019-03-30T20:58:31.223Z,5.22
2019-03-30T21:01:03.645Z,5.27
2019-03-30T21:03:35.991Z,5.15
2019-03-30T21:06:08.200Z,5.19
2019-03-30T21:08:40.515Z,5.28
2019-03-30T21:11:13.093Z,5.31
2019-03-30T21:13:46.050Z,5.27
2019-03-30T21:16:18.375Z,5.20
2019-03-30T21:18:50.670Z,5.08
2019-03-30T21:21:22.890Z,5.12
2019-03-30T21:23:56.992Z,5.10
2019-03-30T21:26:29.097Z,5.14
2019-03-30T21:29:03.775Z,5.08
2019-03-30T21:31:36.164Z,5.17
2019-03-30T21:34:08.687Z,5.18
2019-03-30T21:36:41.974Z,5.16
2019-03-30T21:39:14.065Z,5.20
2019-03-30T21:41:46.374Z,5.23
2019-03-30T21:44:22.162Z,5.15
2019-03-30T21:46:54.547Z,5.18
2019-03-30T21:49:30.893Z,5.06
2019-03-30T21:52:04.052Z,5.08
2019-03-30T21:54:36.091Z,5.12
2019-03-30T21:57:09.397Z,5.16
2019-03-30T21:59:42.042Z,5.12
2019-03-30T22:02:15.813Z,5.12
2019-03-30T22:04:48.684Z,4.89
2019-03-30T22:07:20.657Z,4.91
2019-03-30T22:09:53.333Z,4.85
2019-03-30T22:12:26.798Z,4.84
2019-03-30T22:14:59.349Z,4.78
2019-03-30T22:17:31.906Z,4.83
2019-03-30T22:20:04.437Z,4.82
2019-03-30T22:22:37.264Z,4.88
2019-03-30T22:25:09.692Z,4.86
2019-03-30T22:27:42.077Z,4.83
2019-03-30T22:30:24.762Z,4.87
2019-03-30T22:32:51.020Z,4.88
2019-03-30T22:35:23.345Z,4.89
2019-03-30T22:37:55.692Z,4.90
2019-03-30T22:40:28.072Z,4.89
2019-03-30T22:43:00.380Z,4.85
2019-03-30T22:45:32.771Z,4.84
2019-03-30T22:48:05.316Z,4.74
2019-03-30T22:50:37.685Z,4.76
2019-03-30T22:53:10.022Z,4.80
2019-03-30T22:55:42.740Z,4.78
2019-03-30T22:58:15.547Z,4.75
2019-03-30T23:00:59.653Z,4.78
2019-03-30T23:03:32.162Z,4.77
2019-03-30T23:06:04.459Z,4.70
2019-03-30T23:08:36.815Z,4.72
2019-03-30T23:11:09.283Z,4.61
2019-03-30T23:13:41.584Z,4.63
2019-03-30T23:16:13.908Z,4.69
2019-03-30T23:18:47.414Z,4.65
2019-03-30T23:21:20.111Z,4.62
2019-03-30T23:23:52.445Z,4.62
2019-03-30T23:26:24.841Z,4.57
2019-03-30T23:28:59.390Z,4.58
2019-03-30T23:31:33.505Z,4.58
2019-03-30T23:34:05.851Z,4.41
2019-03-30T23:36:39.047Z,4.45
2019-03-30T23:39:11.457Z,4.43
2019-03-30T23:41:43.813Z,4.40
2019-03-30T23:44:16.067Z,4.49
2019-03-30T23:46:48.423Z,4.49
2019-03-30T23:49:21.105Z,4.51
2019-03-30T23:51:53.817Z,4.52
2019-03-30T23:54:26.138Z,4.48
2019-03-30T23:57:00.232Z,4.46
2019-03-30T23:59:33.706Z,4.43
